Time;durP1;ratioP1;P1;durP2;ratioP2;P2;SDS_P1;SDS_P2;PMS_P1;PMS_P2;Temp;Humidity;BMP_temperature;BMP_pressure;BME280_temperature;BME280_humidity;BME280_pressure;Samples;Min_cycle;Max_cycle;Signal;HPM_P1;HPM_P2
2022/04/19 00:01:18;;;;;;;5.75;1.67;;;;;;;6.02;66.38;100548.34;5011866;28;20069;-67
2022/04/19 00:04:21;;;;;;;6.75;1.80;;;;;;;5.93;66.96;100559.84;5011928;28;20057;-68
2022/04/19 00:07:25;;;;;;;3.53;1.95;;;;;;;6.08;66.62;100558.50;5012367;28;20041;-68
2022/04/19 00:10:29;;;;;;;2.83;1.90;;;;;;;6.18;65.73;100557.31;5010899;28;20084;-68
2022/04/19 00:13:32;;;;;;;;;;;;;;;6.23;65.74;100552.81;5012810;28;20056;-68
2022/04/19 00:16:36;;;;;;;3.90;1.75;;;;;;;6.16;65.86;100551.34;5011306;28;20383;-68
2022/04/19 00:19:39;;;;;;;4.97;1.83;;;;;;;5.81;66.30;100544.69;5007668;28;20118;-68
2022/04/19 00:22:42;;;;;;;4.13;1.95;;;;;;;5.94;66.12;100537.38;5012320;28;20655;-67
2022/04/19 00:25:47;;;;;;;7.93;1.45;;;;;;;5.75;66.62;100537.09;5011916;28;20048;-67
2022/04/19 00:28:50;;;;;;;3.97;1.52;;;;;;;5.63;67.35;100540.06;5000452;28;20137;-67
2022/04/19 00:31:54;;;;;;;;;;;;;;;5.71;67.14;100541.53;5012700;28;20108;-68
2022/04/19 00:34:59;;;;;;;3.65;1.60;;;;;;;5.69;67.11;100540.72;5000290;28;20427;-68
2022/04/19 00:38:03;;;;;;;2.13;1.17;;;;;;;5.53;67.90;100537.75;4998447;28;20054;-68
2022/04/19 00:41:06;;;;;;;3.30;1.88;;;;;;;5.42;68.05;100536.38;5010842;28;20052;-67
2022/04/19 00:44:10;;;;;;;5.47;2.10;;;;;;;5.47;68.01;100534.50;5011627;28;20504;-67
2022/04/19 00:47:15;;;;;;;;;;;;;;;5.71;67.30;100532.88;5011341;28;20057;-67
2022/04/19 00:50:20;;;;;;;5.88;1.52;;;;;;;5.60;67.68;100525.44;4998961;28;19967;-67
2022/04/19 00:53:27;;;;;;;3.53;1.88;;;;;;;5.46;67.76;100522.44;4998435;28;20460;-67
2022/04/19 00:56:30;;;;;;;4.32;1.95;;;;;;;5.38;68.15;100529.59;4999823;28;20053;-67
2022/04/19 00:59:34;;;;;;;3.13;1.58;;;;;;;5.33;68.25;100530.59;4999775;28;20103;-68
2022/04/19 01:02:39;;;;;;;3.72;1.50;;;;;;;5.32;68.17;100515.06;5010833;28;20172;-67
2022/04/19 01:05:47;;;;;;;3.25;1.58;;;;;;;5.13;68.93;100519.97;4998930;28;20079;-67
2022/04/19 01:08:54;;;;;;;4.32;1.70;;;;;;;5.08;68.77;100512.34;4997773;28;20057;-67
2022/04/19 01:15:22;;;;;;;3.35;1.83;;;;;;;5.03;69.33;100516.81;4999877;28;20048;-67
2022/04/19 01:18:46;;;;;;;4.50;1.67;;;;;;;5.00;69.43;100516.88;4998416;28;20536;-67
2022/04/19 01:21:51;;;;;;;3.47;1.58;;;;;;;5.04;69.28;100515.94;5010895;28;20048;-67
2022/04/19 01:25:04;;;;;;;5.90;1.45;;;;;;;4.96;69.29;100519.63;5010156;28;20056;-67
2022/04/19 01:28:08;;;;;;;3.67;1.40;;;;;;;4.96;69.16;100517.88;4997955;28;20045;-68
2022/04/19 01:31:12;;;;;;;2.88;1.60;;;;;;;5.05;68.91;100519.38;4998428;28;20049;-67
2022/04/19 01:34:23;;;;;;;3.58;1.30;;;;;;;5.02;68.73;100517.72;5009387;28;20165;-67
2022/04/19 01:37:34;;;;;;;3.33;1.35;;;;;;;4.91;68.59;100514.56;5012113;28;20057;-67
2022/04/19 01:40:37;;;;;;;3.17;1.67;;;;;;;4.78;68.95;100519.25;5015424;28;20121;-67
2022/04/19 01:43:44;;;;;;;4.85;1.67;;;;;;;4.76;68.99;100517.63;5012886;28;20056;-67
2022/04/19 01:46:47;;;;;;;3.63;1.60;;;;;;;4.83;68.93;100516.53;5014062;28;20402;-67
2022/04/19 01:49:50;;;;;;;2.80;1.50;;;;;;;4.96;69.07;100517.03;5003307;28;20152;-67
2022/04/19 01:52:57;;;;;;;3.47;1.42;;;;;;;5.00;69.12;100516.06;5015271;28;20122;-67
2022/04/19 01:56:03;;;;;;;3.60;1.70;;;;;;;4.80;70.05;100516.63;5014870;28;20064;-67
2022/04/19 01:59:25;;;;;;;2.88;1.35;;;;;;;4.71;70.26;100507.38;5013973;28;20461;-67
2022/04/19 02:03:12;;;;;;;6.90;1.70;;;;;;;4.70;70.50;100504.84;5015322;28;20127;-67
2022/04/19 02:06:17;;;;;;;4.18;1.85;;;;;;;4.71;70.42;100506.53;5002880;28;20165;-67
2022/04/19 02:09:20;;;;;;;5.65;2.35;;;;;;;4.57;70.48;100502.59;5011017;28;20049;-68
2022/04/19 02:12:24;;;;;;;6.10;2.38;;;;;;;4.56;70.47;100503.50;5002622;28;20127;-68
2022/04/19 02:15:36;;;;;;;7.75;2.40;;;;;;;4.50;70.63;100506.25;5003033;28;20574;-67
2022/04/19 02:18:52;;;;;;;8.80;3.08;;;;;;;4.45;70.19;100499.50;5013483;28;20697;-67
2022/04/19 02:21:56;;;;;;;7.43;2.53;;;;;;;4.46;70.40;100501.19;5014115;28;20647;-67
2022/04/19 02:25:00;;;;;;;6.25;2.40;;;;;;;4.40;70.65;100494.44;5000319;28;20049;-67
2022/04/19 02:28:07;;;;;;;10.20;2.50;;;;;;;4.35;70.74;100489.38;5012369;28;20412;-67
2022/04/19 02:31:13;;;;;;;5.78;2.17;;;;;;;4.43;70.26;100489.16;5000770;28;20417;-67
2022/04/19 02:34:23;;;;;;;8.23;1.90;;;;;;;4.29;70.58;100484.38;5000832;28;20108;-67
2022/04/19 02:42:22;;;;;;;3.50;1.57;;;;;;;4.11;70.63;100488.28;4983270;28;20049;-68
2022/04/19 02:45:25;;;;;;;;;;;;;;;4.14;71.18;100489.94;5002690;28;20315;-68
2022/04/19 02:48:30;;;;;;;11.50;3.60;;;;;;;4.26;70.93;100493.97;5001504;28;19921;-68
2022/04/19 02:51:34;;;;;;;8.05;2.67;;;;;;;4.17;71.11;100489.88;5000623;28;20188;-68
2022/04/19 02:54:38;;;;;;;9.88;2.83;;;;;;;4.11;71.16;100490.88;5012943;28;20160;-68
2022/04/19 02:57:41;;;;;;;7.70;2.42;;;;;;;4.16;70.80;100493.34;5012878;28;20048;-68
2022/04/19 03:00:45;;;;;;;6.50;2.13;;;;;;;4.09;71.08;100491.81;5000960;28;20053;-68
2022/04/19 03:03:48;;;;;;;4.85;2.22;;;;;;;4.20;70.42;100495.81;5000620;28;20292;-68
2022/04/19 03:06:54;;;;;;;6.00;1.70;;;;;;;4.04;71.53;100489.34;5000608;28;20049;-68
2022/04/19 03:09:58;;;;;;;5.25;2.20;;;;;;;3.95;71.53;100490.41;5013586;28;20069;-68
2022/04/19 03:13:01;;;;;;;9.25;2.60;;;;;;;3.86;71.55;100485.50;5000402;28;20057;-68
2022/04/19 03:16:13;;;;;;;9.25;2.63;;;;;;;3.86;71.92;100495.84;5001689;28;20714;-68
2022/04/19 03:19:41;;;;;;;8.15;2.38;;;;;;;3.77;71.80;100485.72;5013226;28;20053;-68
2022/04/19 03:29:33;;;;;;;6.50;2.00;;;;;;;3.86;70.58;100482.91;5011798;28;20116;-68
2022/04/19 03:32:36;;;;;;;4.10;2.00;;;;;;;4.25;69.25;100484.50;4999455;28;20049;-68
2022/04/19 03:35:40;;;;;;;;;;;;;;;3.86;70.81;100485.50;5000393;28;20048;-68
2022/04/19 03:38:43;;;;;;;7.05;2.50;;;;;;;3.73;71.53;100486.69;4999696;28;19967;-68
2022/04/19 03:41:47;;;;;;;7.55;2.20;;;;;;;4.08;70.07;100490.09;5001187;28;20049;-68
2022/04/19 03:44:50;;;;;;;;;;;;;;;3.89;70.99;100490.59;5012900;28;20056;-68
2022/04/19 03:47:53;;;;;;;4.90;2.22;;;;;;;3.77;71.19;100485.72;5000262;28;19921;-68
2022/04/19 03:50:57;;;;;;;9.48;2.20;;;;;;;3.56;72.25;100486.25;4999814;28;20559;-67
2022/04/19 03:54:00;;;;;;;8.85;2.67;;;;;;;3.43;72.50;100483.09;5012361;28;20053;-67
2022/04/19 03:57:07;;;;;;;5.28;2.40;;;;;;;3.44;72.43;100487.38;5000847;28;20044;-68
2022/04/19 04:00:12;;;;;;;6.70;2.20;;;;;;;3.42;72.68;100489.19;4999247;28;20469;-68
2022/04/19 04:03:22;;;;;;;8.43;2.60;;;;;;;3.52;72.15;100488.06;4962754;28;20495;-68
2022/04/19 04:06:27;;;;;;;5.25;2.38;;;;;;;3.58;71.83;100494.84;4984743;28;20426;-68
2022/04/19 04:09:37;;;;;;;5.45;1.95;;;;;;;3.79;70.79;100489.09;4985698;28;20541;-68
2022/04/19 04:12:42;;;;;;;5.70;1.98;;;;;;;3.89;69.83;100490.59;4990263;28;20053;-68
2022/04/19 04:15:48;;;;;;;6.63;2.40;;;;;;;3.65;70.87;100496.38;4979672;28;20521;-68
2022/04/19 04:18:51;;;;;;;6.15;2.30;;;;;;;3.44;72.02;100493.41;4980602;28;20409;-68
2022/04/19 04:21:55;;;;;;;5.07;2.30;;;;;;;3.28;72.47;100501.53;4980784;28;20521;-68
2022/04/19 04:24:58;;;;;;;4.70;2.40;;;;;;;3.20;72.84;100494.81;4991078;28;20045;-68
2022/04/19 04:28:02;;;;;;;5.75;1.70;;;;;;;3.43;71.96;100496.88;4999248;28;20063;-68
2022/04/19 04:31:16;;;;;;;6.57;2.42;;;;;;;3.40;71.52;100491.78;4999444;28;20060;-67
2022/04/19 04:34:20;;;;;;;4.25;2.20;;;;;;;3.28;72.40;100499.81;5011880;28;20504;-68
2022/04/19 04:37:25;;;;;;;8.85;2.33;;;;;;;3.35;72.26;100492.75;5011995;28;20460;-68
2022/04/19 04:40:34;;;;;;;5.32;2.30;;;;;;;3.34;71.89;100491.91;5011906;28;20647;-68
2022/04/19 04:43:41;;;;;;;4.32;2.33;;;;;;;3.42;71.96;100502.94;4975840;28;20053;-68
2022/04/19 04:50:09;;;;;;;6.65;2.60;;;;;;;3.28;72.27;100502.38;4985351;28;20080;-68
2022/04/19 04:53:13;;;;;;;5.53;2.13;;;;;;;3.39;71.91;100503.00;4977771;28;20061;-68
2022/04/19 04:56:24;;;;;;;6.97;2.35;;;;;;;3.37;71.90;100502.19;4977879;28;20053;-68
2022/04/19 04:59:29;;;;;;;4.18;2.00;;;;;;;3.26;72.32;100504.19;5006229;28;20053;-68
2022/04/19 05:02:32;;;;;;;9.80;2.08;;;;;;;3.43;71.68;100511.53;5003368;28;20233;-68
2022/04/19 05:05:35;;;;;;;5.88;1.98;;;;;;;3.60;70.98;100509.41;4995206;28;20052;-68
2022/04/19 05:08:40;;;;;;;5.15;2.13;;;;;;;3.56;71.60;100502.59;4994650;28;20327;-69
2022/04/19 05:11:50;;;;;;;4.20;1.95;;;;;;;3.49;71.65;100496.72;5010298;28;20103;-68
2022/04/19 05:14:56;;;;;;;4.18;1.90;;;;;;;3.37;71.88;100501.34;4999956;28;20108;-68
2022/04/19 05:17:59;;;;;;;4.78;2.20;;;;;;;3.39;72.06;100509.91;5011174;28;20057;-68
2022/04/19 05:21:05;;;;;;;6.35;2.30;;;;;;;3.37;72.13;100506.50;5013914;28;20056;-68
2022/04/19 05:24:09;;;;;;;4.85;2.03;;;;;;;3.50;71.62;100511.34;5025296;28;20061;-67
2022/04/19 05:27:13;;;;;;;3.55;2.00;;;;;;;3.72;70.99;100503.09;5002393;28;20044;-68
2022/04/19 05:30:18;;;;;;;7.72;2.00;;;;;;;4.03;69.85;100502.34;5003832;28;20045;-68
2022/04/19 05:33:23;;;;;;;5.20;1.98;;;;;;;3.86;70.11;100503.63;5015748;28;20135;-68
2022/04/19 05:36:28;;;;;;;4.90;1.85;;;;;;;3.77;70.64;100509.00;5003562;28;20140;-68
2022/04/19 05:39:32;;;;;;;3.40;1.70;;;;;;;3.59;71.83;100512.88;5011967;28;20128;-68
2022/04/19 05:42:37;;;;;;;4.60;1.85;;;;;;;3.74;71.60;100516.84;4998083;28;20421;-68
2022/04/19 05:45:42;;;;;;;3.92;1.98;;;;;;;4.02;70.75;100513.56;5010495;28;20056;-68
2022/04/19 05:48:46;;;;;;;4.35;2.10;;;;;;;3.86;71.34;100508.78;4996408;28;20065;-68
2022/04/19 05:51:51;;;;;;;5.63;1.55;;;;;;;3.72;71.89;100513.44;4998303;28;20107;-68
2022/04/19 05:54:54;;;;;;;7.75;1.85;;;;;;;3.78;71.81;100515.88;5011304;28;20053;-68
2022/04/19 05:57:57;;;;;;;5.38;1.92;;;;;;;3.90;71.37;100513.00;4986149;28;20100;-67
2022/04/19 06:01:01;;;;;;;;;;;;;;;4.20;71.03;100513.09;4983809;28;20457;-68
2022/04/19 06:07:30;;;;;;;5.10;2.22;;;;;;;4.33;69.70;100504.09;4995481;28;20120;-68
2022/04/19 06:10:36;;;;;;;4.95;2.35;;;;;;;4.47;69.25;100508.91;4975099;28;20133;-68
2022/04/19 06:13:40;;;;;;;5.45;1.77;;;;;;;4.38;70.21;100514.34;4975172;28;20077;-68
2022/04/19 06:16:44;;;;;;;5.55;2.13;;;;;;;4.39;70.61;100501.34;4974756;28;20075;-67
2022/04/19 06:19:48;;;;;;;6.63;2.35;;;;;;;4.39;71.19;100509.09;4975376;28;20077;-68
2022/04/19 06:22:51;;;;;;;;;;;;;;;4.57;70.33;100512.94;4973366;28;20121;-68
2022/04/19 06:25:56;;;;;;;5.72;2.10;;;;;;;4.61;71.01;100505.94;4972209;28;20060;-68
2022/04/19 06:29:03;;;;;;;4.38;1.75;;;;;;;4.82;70.19;100497.56;4974735;28;20053;-70
2022/04/19 06:32:20;;;;;;;7.32;2.28;;;;;;;4.82;70.19;100489.78;4974886;28;20073;-70
2022/04/19 06:35:26;;;;;;;3.83;1.92;;;;;;;4.86;69.59;100488.81;4974675;28;20126;-71
2022/04/19 06:38:29;;;;;;;5.60;1.90;;;;;;;4.95;69.99;100487.69;4986043;28;20050;-71
2022/04/19 06:41:34;;;;;;;3.95;1.67;;;;;;;5.04;70.02;100486.56;4974515;28;20054;-71
2022/04/19 06:44:37;;;;;;;3.20;2.00;;;;;;;5.17;68.92;100489.63;4974726;28;20154;-71
2022/04/19 06:48:01;;;;;;;4.40;1.92;;;;;;;5.36;68.70;100478.66;4974953;28;20076;-71
2022/04/19 06:51:05;;;;;;;6.20;2.33;;;;;;;5.52;69.45;100475.53;4974326;28;20109;-70
2022/04/19 06:54:12;;;;;;;7.82;1.98;;;;;;;5.67;68.34;100469.88;4974273;28;20084;-71
2022/04/19 06:57:21;;;;;;;5.53;2.22;;;;;;;5.87;68.34;100478.72;4993395;28;20053;-71
2022/04/19 07:00:25;;;;;;;4.97;2.38;;;;;;;6.04;67.96;100486.84;4993749;28;20100;-71
2022/04/19 07:03:29;;;;;;;3.40;1.80;;;;;;;6.18;67.92;100479.41;4993738;28;20120;-71
2022/04/19 07:06:52;;;;;;;3.83;1.90;;;;;;;6.20;67.75;100475.03;4994479;28;20058;-71
2022/04/19 07:10:01;;;;;;;6.05;2.00;;;;;;;6.42;66.92;100469.94;5000414;28;20057;-70
2022/04/19 07:13:04;;;;;;;3.80;2.17;;;;;;;6.67;66.71;100472.47;5001849;28;20528;-71
2022/04/19 07:16:09;;;;;;;3.03;1.75;;;;;;;6.82;65.73;100470.19;4987019;28;20049;-71
2022/04/19 07:19:13;;;;;;;3.75;2.20;;;;;;;6.99;65.12;100467.81;4968037;28;20102;-71
2022/04/19 07:29:15;;;;;;;9.73;2.28;;;;;;;7.30;65.50;100469.22;4998755;28;20519;-71
2022/04/19 07:32:19;;;;;;;11.55;2.30;;;;;;;7.53;64.48;100466.56;5002303;28;20470;-71
2022/04/19 07:35:44;;;;;;;4.00;2.20;;;;;;;7.75;63.55;100465.66;5001226;28;20053;-71
2022/04/19 07:38:48;;;;;;;7.70;2.42;;;;;;;7.90;61.61;100452.00;5001022;28;20049;-68
2022/04/19 07:42:00;;;;;;;6.25;2.80;;;;;;;8.04;59.52;100460.09;5012918;28;20129;-68
2022/04/19 07:45:06;;;;;;;5.00;2.67;;;;;;;8.25;58.40;100452.25;5001306;28;20049;-68
2022/04/19 07:48:12;;;;;;;3.67;2.42;;;;;;;8.36;57.91;100463.06;5001136;28;20044;-68
2022/04/19 07:51:15;;;;;;;4.88;2.38;;;;;;;8.48;57.20;100462.53;5000892;28;20044;-68
2022/04/19 07:54:19;;;;;;;5.47;2.72;;;;;;;8.65;57.80;100453.09;5001692;28;20048;-68
2022/04/19 07:57:24;;;;;;;6.13;2.25;;;;;;;8.76;56.09;100443.03;5005795;28;20068;-68
2022/04/19 08:00:32;;;;;;;6.35;2.67;;;;;;;8.84;55.89;100443.53;4990358;28;20407;-68
2022/04/19 08:03:35;;;;;;;5.18;3.15;;;;;;;8.97;54.96;100439.44;4976056;28;20524;-68
2022/04/19 08:06:38;;;;;;;5.68;2.58;;;;;;;9.08;55.12;100444.97;4989301;28;20041;-68
2022/04/19 08:09:41;;;;;;;6.80;3.00;;;;;;;9.17;54.22;100438.50;4994160;28;20052;-68
2022/04/19 08:12:45;;;;;;;6.35;3.33;;;;;;;9.22;53.82;100433.03;5001567;28;20052;-70
2022/04/19 08:15:49;;;;;;;4.82;2.83;;;;;;;9.35;54.42;100428.94;5023110;28;20056;-71
2022/04/19 08:18:53;;;;;;;9.55;3.53;;;;;;;9.52;53.56;100431.56;5011634;28;20049;-71
2022/04/19 08:21:57;;;;;;;7.32;3.35;;;;;;;9.63;53.07;100438.84;5011885;28;20424;-71
2022/04/19 08:25:03;;;;;;;9.70;3.10;;;;;;;9.76;51.84;100434.72;4999671;28;20045;-71
2022/04/19 08:28:07;;;;;;;9.18;3.97;;;;;;;10.14;51.82;100433.66;5000412;28;20044;-71
2022/04/19 08:31:11;;;;;;;7.32;3.35;;;;;;;10.15;50.76;100424.94;5012466;28;20088;-71
2022/04/19 08:34:15;;;;;;;6.90;3.03;;;;;;;10.10;51.17;100426.94;4999800;28;20040;-71
2022/04/19 08:37:20;;;;;;;8.85;2.85;;;;;;;10.16;51.82;100427.44;5000208;28;20128;-71
2022/04/19 08:40:26;;;;;;;6.55;3.65;;;;;;;10.51;51.67;100416.94;5011852;28;20100;-71
2022/04/19 08:43:31;;;;;;;4.30;2.70;;;;;;;10.58;51.08;100418.28;4999747;28;20076;-71
2022/04/19 08:46:41;;;;;;;6.70;2.80;;;;;;;10.65;50.28;100413.56;5012126;28;20080;-71
2022/04/19 08:49:45;;;;;;;4.75;2.75;;;;;;;10.60;49.94;100415.59;5012179;28;20084;-71
2022/04/19 08:57:29;;;;;;;6.95;2.63;;;;;;;10.73;51.71;100416.63;5012552;28;20080;-71
2022/04/19 08:59:36;;;;;;;6.68;3.30;;;;;;;11.04;49.39;100407.06;4993598;28;20145;-71
2022/04/19 09:02:39;;;;;;;;;;;;;;;11.10;48.90;100409.34;4993371;28;20049;-71
2022/04/19 09:05:50;;;;;;;5.50;3.17;;;;;;;11.54;48.17;100409.41;4992514;28;19937;-71
2022/04/19 09:09:09;;;;;;;6.85;3.10;;;;;;;11.59;47.19;100401.31;4992385;28;20061;-71
2022/04/19 09:12:12;;;;;;;4.60;2.70;;;;;;;11.69;47.08;100397.22;4992570;28;20050;-71
2022/04/19 09:15:15;;;;;;;6.80;3.20;;;;;;;11.73;47.51;100393.47;4992462;28;20052;-71
2022/04/19 09:18:32;;;;;;;8.75;3.10;;;;;;;11.77;46.63;100395.00;4992800;28;20045;-70
2022/04/19 09:21:39;;;;;;;5.57;2.88;;;;;;;12.08;45.13;100383.53;4980816;28;20650;-71
2022/04/19 09:24:42;;;;;;;5.80;3.47;;;;;;;12.36;44.35;100388.88;4994961;28;20060;-71
2022/04/19 09:27:48;;;;;;;5.65;3.50;;;;;;;12.52;44.60;100389.59;5011949;28;20045;-71
2022/04/19 09:30:56;;;;;;;9.35;3.78;;;;;;;12.67;42.28;100370.28;5012180;28;20100;-71
2022/04/19 09:34:00;;;;;;;7.57;3.40;;;;;;;12.59;44.54;100377.78;5011458;28;20408;-71
2022/04/19 09:37:08;;;;;;;6.90;4.03;;;;;;;13.01;42.98;100366.31;5011765;28;20104;-71
2022/04/19 09:40:12;;;;;;;10.50;4.50;;;;;;;13.19;41.72;100371.31;5011983;28;20041;-71
2022/04/19 09:43:18;;;;;;;8.15;4.30;;;;;;;12.99;41.89;100362.97;5010495;28;20049;-68
2022/04/19 09:46:21;;;;;;;5.75;3.40;;;;;;;12.99;42.54;100355.09;5009471;28;20099;-68
2022/04/19 09:49:41;;;;;;;6.55;4.43;;;;;;;13.31;41.61;100362.66;5009759;28;20413;-68
2022/04/19 09:52:48;;;;;;;6.88;3.75;;;;;;;13.59;40.28;100348.53;5009974;28;20049;-68
2022/04/19 09:55:53;;;;;;;5.45;3.55;;;;;;;13.50;40.18;100351.78;4998261;28;20189;-68
2022/04/19 09:58:57;;;;;;;7.18;4.07;;;;;;;13.45;40.63;100352.06;4994838;28;20457;-68
2022/04/19 10:08:46;;;;;;;6.70;3.67;;;;;;;13.69;39.75;100341.72;4995782;28;20040;-68
2022/04/19 10:11:50;;;;;;;7.88;4.35;;;;;;;13.81;39.77;100339.16;4995219;28;20642;-68
2022/04/19 10:14:54;;;;;;;5.43;4.22;;;;;;;13.91;40.90;100332.31;4995411;28;20041;-68
2022/04/19 10:17:58;;;;;;;10.57;4.53;;;;;;;14.13;40.00;100336.94;4994657;28;20041;-68
2022/04/19 10:21:05;;;;;;;8.32;5.15;;;;;;;14.19;38.44;100332.09;4995272;28;20504;-68
2022/04/19 10:24:10;;;;;;;10.57;5.85;;;;;;;14.02;40.15;100329.81;4995848;28;20104;-68
2022/04/19 10:27:13;;;;;;;8.23;5.13;;;;;;;14.18;39.93;100335.66;4995272;28;20046;-68
2022/04/19 10:30:20;;;;;;;8.30;4.80;;;;;;;14.39;40.24;100322.81;4995231;28;20556;-68
2022/04/19 10:33:39;;;;;;;15.85;5.50;;;;;;;14.40;38.95;100319.22;4995050;28;20570;-68
2022/04/19 10:36:43;;;;;;;6.78;4.65;;;;;;;14.40;36.01;100323.63;4994989;28;20129;-68
2022/04/19 10:39:49;;;;;;;7.70;4.10;;;;;;;14.50;37.66;100322.03;4995059;28;20046;-68
2022/04/19 10:43:12;;;;;;;6.47;4.70;;;;;;;14.79;36.77;100313.84;4994842;28;20053;-68
2022/04/19 10:46:16;;;;;;;4.97;3.53;;;;;;;14.69;36.39;100307.56;4994622;28;20121;-68
2022/04/19 10:49:23;;;;;;;6.75;4.28;;;;;;;14.84;35.83;100311.72;4994966;28;20036;-68
2022/04/19 10:52:39;;;;;;;10.23;4.35;;;;;;;14.86;36.47;100312.44;4994452;28;20045;-68
2022/04/19 10:56:02;;;;;;;7.72;5.20;;;;;;;14.56;35.36;100311.09;5011567;28;20052;-68
2022/04/19 10:59:21;;;;;;;9.35;5.15;;;;;;;15.15;37.06;100304.16;5013542;28;20041;-68
2022/04/19 11:02:35;;;;;;;7.78;5.38;;;;;;;15.22;36.15;100310.66;5013912;28;20172;-68
2022/04/19 11:05:46;;;;;;;6.82;4.80;;;;;;;15.03;36.39;100301.50;5014176;28;20048;-68
2022/04/19 11:09:05;;;;;;;5.95;4.13;;;;;;;15.34;34.06;100292.13;5012972;28;20401;-68
2022/04/19 11:12:10;;;;;;;6.60;4.47;;;;;;;15.44;34.09;100296.69;5013661;28;20057;-68
2022/04/19 11:15:14;;;;;;;10.48;5.80;;;;;;;15.37;35.80;100285.78;5013504;28;20505;-68
2022/04/19 11:18:25;;;;;;;6.47;4.82;;;;;;;15.26;34.91;100298.94;5013845;28;20048;-68
2022/04/19 11:21:49;;;;;;;7.20;4.75;;;;;;;15.44;34.07;100284.34;5013613;28;20076;-68
2022/04/19 11:25:04;;;;;;;7.00;4.70;;;;;;;15.64;34.36;100289.91;5013164;28;20049;-68
2022/04/19 11:28:09;;;;;;;7.03;5.05;;;;;;;15.27;35.15;100276.91;5013830;28;20096;-68
2022/04/19 11:31:14;;;;;;;8.27;5.30;;;;;;;15.36;35.65;100276.22;5013443;28;20053;-68
2022/04/19 11:34:17;;;;;;;8.13;5.75;;;;;;;15.64;35.56;100274.94;5013529;28;20049;-68
2022/04/19 11:37:21;;;;;;;7.60;5.30;;;;;;;15.66;36.16;100272.16;5013491;28;20408;-68
2022/04/19 11:47:09;;;;;;;8.30;5.20;;;;;;;16.27;32.97;100262.09;5012088;28;20052;-68
2022/04/19 11:50:31;;;;;;;8.38;4.97;;;;;;;16.26;32.69;100255.16;5013412;28;20504;-68
2022/04/19 11:53:34;;;;;;;6.20;5.00;;;;;;;16.51;32.67;100260.13;5012517;28;20052;-68
2022/04/19 11:56:38;;;;;;;6.38;4.30;;;;;;;16.60;31.96;100262.97;5013112;28;20049;-68
2022/04/19 11:59:43;;;;;;;9.77;3.83;;;;;;;16.63;31.64;100257.44;5008563;28;20041;-68
2022/04/19 12:02:50;;;;;;;5.80;4.30;;;;;;;16.62;32.19;100261.03;5012621;28;20048;-68
2022/04/19 12:06:04;;;;;;;6.97;3.60;;;;;;;16.83;32.15;100254.03;5012118;28;20464;-68
2022/04/19 12:09:14;;;;;;;5.60;4.18;;;;;;;16.63;29.73;100246.91;5010977;28;20037;-68
2022/04/19 12:12:19;;;;;;;6.18;4.05;;;;;;;16.88;28.80;100243.94;5012336;28;20053;-68
2022/04/19 12:15:40;;;;;;;6.13;3.75;;;;;;;16.98;29.52;100237.91;5012758;28;20053;-68
2022/04/19 12:18:51;;;;;;;4.25;2.90;;;;;;;17.04;30.82;100242.63;5006152;28;20448;-68
2022/04/19 12:21:56;;;;;;;10.95;3.45;;;;;;;17.08;29.36;100242.25;5012225;28;20171;-68
2022/04/19 12:25:00;;;;;;;5.50;3.25;;;;;;;17.07;28.42;100245.00;5004673;28;20507;-68
2022/04/19 12:28:10;;;;;;;4.57;3.22;;;;;;;17.46;29.75;100240.00;5000411;28;20048;-68
2022/04/19 12:31:30;;;;;;;5.97;3.70;;;;;;;17.68;28.35;100239.81;5007611;28;20107;-68
2022/04/19 12:34:36;;;;;;;6.55;4.32;;;;;;;18.00;27.74;100233.56;5007227;28;20057;-69
2022/04/19 12:37:40;;;;;;;5.82;3.75;;;;;;;18.33;27.27;100225.25;5007495;28;20049;-68
2022/04/19 12:40:45;;;;;;;6.50;3.58;;;;;;;18.76;27.17;100226.72;5006633;28;20333;-69
2022/04/19 12:43:49;;;;;;;5.55;3.40;;;;;;;19.14;26.86;100224.97;4988070;28;20185;-69
2022/04/19 12:46:53;;;;;;;6.15;3.08;;;;;;;19.34;26.22;100225.78;4988453;28;20134;-68
2022/04/19 12:49:58;;;;;;;4.75;3.45;;;;;;;19.26;26.38;100223.00;4988239;28;20102;-68
2022/04/19 12:53:02;;;;;;;7.57;2.95;;;;;;;19.73;26.73;100207.94;4990613;28;20099;-68
2022/04/19 12:56:13;;;;;;;7.57;3.25;;;;;;;19.53;24.72;100208.97;4988166;28;20053;-68
2022/04/19 12:59:17;;;;;;;6.55;3.22;;;;;;;19.33;25.73;100210.00;4990369;28;20101;-68
2022/04/19 13:02:22;;;;;;;5.25;2.95;;;;;;;19.47;24.17;100205.06;5002495;28;20052;-68
2022/04/19 13:12:16;;;;;;;4.47;3.10;;;;;;;19.25;24.58;100205.44;5012040;28;20049;-68
2022/04/19 13:12:19;;;;;;;5.53;2.83;;;;;;;20.13;24.06;100182.00;4968298;28;20105;-68
2022/04/19 13:15:22;;;;;;;7.65;2.53;;;;;;;20.61;23.62;100179.00;4975823;28;20053;-68
2022/04/19 13:18:27;;;;;;;5.60;2.70;;;;;;;20.13;24.31;100180.19;4974456;28;20180;-69
2022/04/19 13:21:31;;;;;;;5.32;2.60;;;;;;;20.31;24.16;100176.72;4987012;28;20053;-69
2022/04/19 13:24:38;;;;;;;3.78;2.55;;;;;;;20.33;23.75;100178.22;4982664;28;20053;-69
2022/04/19 13:27:41;;;;;;;4.47;2.40;;;;;;;20.70;23.90;100179.06;4969319;28;20048;-69
2022/04/19 13:30:45;;;;;;;4.38;2.50;;;;;;;21.09;23.49;100172.38;4968395;28;20073;-69
2022/04/19 13:33:50;;;;;;;3.58;2.08;;;;;;;21.57;23.23;100168.34;4971071;28;20092;-69
2022/04/19 13:36:59;;;;;;;4.53;2.15;;;;;;;23.53;21.42;100159.56;4976585;28;20076;-69
2022/04/19 13:40:03;;;;;;;7.15;2.28;;;;;;;25.25;18.97;100148.47;4989779;28;20181;-69
2022/04/19 13:43:07;;;;;;;4.00;2.20;;;;;;;26.54;17.66;100146.03;5004721;28;20174;-69
2022/04/19 13:46:11;;;;;;;3.20;2.22;;;;;;;27.75;16.01;100137.69;4994389;28;20557;-69
2022/04/19 13:49:16;;;;;;;3.80;1.90;;;;;;;30.54;14.21;100131.75;4995872;28;20053;-69
2022/04/19 13:52:20;;;;;;;3.50;2.15;;;;;;;32.61;12.93;100131.72;4993945;28;20118;-69
2022/04/19 13:55:25;;;;;;;5.80;2.20;;;;;;;34.42;11.12;100125.03;4975321;28;20053;-69
2022/04/19 13:58:28;;;;;;;7.70;1.80;;;;;;;34.17;11.08;100128.16;4975760;28;20126;-69
2022/04/19 14:01:31;;;;;;;3.25;2.33;;;;;;;31.98;12.02;100120.63;4983774;28;20049;-69
2022/04/19 14:04:34;;;;;;;4.55;2.10;;;;;;;33.89;11.13;100120.03;4996408;28;20045;-70
2022/04/19 14:07:39;;;;;;;3.40;1.75;;;;;;;35.66;10.08;100119.44;4995466;28;20153;-70
2022/04/19 14:10:42;;;;;;;4.90;2.20;;;;;;;34.90;10.28;100130.94;5006624;28;20060;-70
2022/04/19 14:13:45;;;;;;;3.53;1.85;;;;;;;29.00;14.19;100132.66;5002925;28;20045;-70
2022/04/19 14:16:49;;;;;;;3.97;1.73;;;;;;;33.70;11.23;100135.72;5014347;28;20125;-70
2022/04/19 14:19:54;;;;;;;3.10;1.50;;;;;;;33.27;11.19;100134.25;5017265;28;20041;-70
2022/04/19 14:22:58;;;;;;;4.82;1.65;;;;;;;33.36;11.36;100127.41;5012304;28;20397;-70
2022/04/19 14:26:01;;;;;;;4.47;1.40;;;;;;;35.28;10.85;100121.97;5014228;28;20045;-70
2022/04/19 14:35:51;;;;;;;2.95;1.55;;;;;;;32.34;13.43;100122.34;5014205;28;20048;-70
2022/04/19 14:38:54;;;;;;;2.90;1.30;;;;;;;31.26;13.83;100134.78;5013254;28;20108;-70
2022/04/19 14:41:57;;;;;;;2.80;1.60;;;;;;;33.86;11.48;100120.56;5014409;28;20049;-70
2022/04/19 14:45:01;;;;;;;3.75;1.40;;;;;;;32.80;12.00;100118.88;5014979;28;20052;-70
2022/04/19 14:48:04;;;;;;;3.25;1.52;;;;;;;34.75;10.79;100114.44;5014954;28;20129;-70
2022/04/19 14:54:30;;;;;;;2.65;1.50;;;;;;;34.71;10.97;100116.81;4993986;28;20141;-70
2022/04/19 14:57:33;;;;;;;3.78;1.60;;;;;;;33.86;12.10;100107.81;4994346;28;20053;-70
2022/04/19 15:00:38;;;;;;;3.28;1.50;;;;;;;34.97;11.40;100112.56;4993483;28;20100;-70
2022/04/19 15:03:42;;;;;;;3.63;1.30;;;;;;;34.07;11.86;100105.47;4993630;28;20512;-70
2022/04/19 15:06:46;;;;;;;3.40;1.70;;;;;;;33.35;12.62;100112.22;4994078;28;20126;-70
2022/04/19 15:09:50;;;;;;;3.25;1.52;;;;;;;32.42;12.61;100111.19;4993010;28;20048;-70
2022/04/19 15:12:53;;;;;;;13.55;1.85;;;;;;;33.62;12.67;100106.25;4993729;28;20633;-70
2022/04/19 15:15:56;;;;;;;12.35;2.20;;;;;;;33.37;13.09;100101.13;4993692;28;20045;-70
2022/04/19 15:19:00;;;;;;;4.88;1.60;;;;;;;31.23;14.30;100103.66;4994067;28;20073;-70
2022/04/19 15:22:04;;;;;;;12.90;1.55;;;;;;;32.08;13.47;100091.97;5007072;28;20072;-70
2022/04/19 15:25:07;;;;;;;8.57;1.50;;;;;;;33.36;12.62;100089.47;5013503;28;20095;-70
2022/04/19 15:28:11;;;;;;;7.22;1.63;;;;;;;31.69;12.92;100091.47;5013516;28;20049;-70
2022/04/19 15:31:16;;;;;;;5.82;1.30;;;;;;;33.06;13.52;100085.09;5011396;28;20069;-70
2022/04/19 15:34:20;;;;;;;6.88;1.35;;;;;;;33.32;12.68;100082.91;5013534;28;20569;-70